This is the latest recevied weather packets stored in our database for station/object KB1JDX. If no packets are shown the sender has not sent any weather packets the latest 1 day(s).
| Time | Temp. | Humidity | Pressure | Rain* | Wind** | Luminosity | Snow |
|---|---|---|---|---|---|---|---|
| 1778077167 | 18.89° C | 63% | 1009.8 hPa | 0 mm | 0.45 m/s, 184° | - | - |
| 1778074838 | 18.33° C | 61% | 1009.7 hPa | 0 mm | 0 m/s | - | - |
| 1778071236 | 16.67° C | 45% | 1010.3 hPa | 0 mm | 4.47 m/s, 187° | - | - |
| 1778066435 | 14.44° C | 24% | 1010.8 hPa | 0 mm | 0 m/s | - | - |
| 1778065236 | 14.44° C | 22% | 1010.7 hPa | 0 mm | 0 m/s | - | - |
| 1778062836 | 14.44° C | 26% | 1010.6 hPa | 0 mm | 0 m/s | - | - |
| 1778061636 | 14.44° C | 27% | 1010.5 hPa | 0 mm | 0 m/s | - | - |
| 1778059237 | 14.44° C | 32% | 1010.5 hPa | 0 mm | 0 m/s | - | - |
| 1778058035 | 14.44° C | 33% | 1010.7 hPa | 0 mm | 4.47 m/s, 208° | - | - |
| 1778056835 | 14.44° C | 34% | 1010.7 hPa | 0 mm | 0 m/s | - | - |
| 1778055635 | 14.44° C | 35% | 1010.9 hPa | 0 mm | 0 m/s | - | - |
| 1778054435 | 14.44° C | 36% | 1010.9 hPa | 0 mm | 0 m/s | - | - |
| 1778050835 | 15° C | 44% | 1010.9 hPa | 0 mm | 0 m/s | - | - |
| 1778049636 | 15° C | 47% | 1010.9 hPa | 0 mm | 0 m/s | - | - |
| 1778048435 | 15.56° C | 51% | 1010.8 hPa | 0 mm | 0 m/s | - | - |
| 1778047235 | 15.56° C | 54% | 1010.9 hPa | 0 mm | 0 m/s | - | - |
| 1778044835 | 16.67° C | 60% | 1011.2 hPa | 0 mm | 2.24 m/s, 223° | - | - |
| 1778044766 | 16.67° C | 60% | 1011.2 hPa | 0 mm | 0 m/s | - | - |
| 1778043635 | 16.67° C | 62% | 1011.3 hPa | 0 mm | 0 m/s | - | - |
| 1778042435 | 16.67° C | 62% | 1011.4 hPa | 0 mm | 0.89 m/s, 250° | - | - |
| 1778041235 | 16.67° C | 63% | 1011.4 hPa | 0 mm | 0 m/s | - | - |
| 1778041166 | 16.67° C | 63% | 1011.5 hPa | 0 mm | 2.24 m/s, 226° | - | - |
| 1778040035 | 16.67° C | 64% | 1011.5 hPa | 0 mm | 0 m/s | - | - |
| 1778038835 | 16.67° C | 64% | 1011.4 hPa | 0 mm | 0 m/s | - | - |
| 1778036436 | 16.11° C | 65% | 1011.3 hPa | 0 mm | 2.24 m/s, 195° | - | - |
* Rain latest hour (hover to see other rain measurements)
** Current wind speed in m/s (hover to see current wind gust speed)